sensor_id;sensor_type;location;lat;lon;timestamp;temperature;humidity
45008;DHT22;30743;52.008;5.644;2023-02-22T00:00:48;12.60;99.90
45008;DHT22;30743;52.008;5.644;2023-02-22T00:03:15;12.70;99.90
45008;DHT22;30743;52.008;5.644;2023-02-22T00:05:42;12.70;99.90
45008;DHT22;30743;52.008;5.644;2023-02-22T00:08:15;12.80;99.90
45008;DHT22;30743;52.008;5.644;2023-02-22T00:10:42;12.90;99.90
45008;DHT22;30743;52.008;5.644;2023-02-22T00:13:10;12.90;99.90
45008;DHT22;30743;52.008;5.644;2023-02-22T00:15:35;12.90;99.90
45008;DHT22;30743;52.008;5.644;2023-02-22T00:18:03;12.80;99.90
45008;DHT22;30743;52.008;5.644;2023-02-22T00:20:28;12.80;99.90
45008;DHT22;30743;52.008;5.644;2023-02-22T00:22:55;12.70;99.90
45008;DHT22;30743;52.008;5.644;2023-02-22T00:25:23;12.60;99.90
45008;DHT22;30743;52.008;5.644;2023-02-22T00:27:50;12.40;99.90
45008;DHT22;30743;52.008;5.644;2023-02-22T00:30:26;12.50;99.90
45008;DHT22;30743;52.008;5.644;2023-02-22T00:32:53;12.50;99.90
45008;DHT22;30743;52.008;5.644;2023-02-22T00:35:21;12.50;99.90
45008;DHT22;30743;52.008;5.644;2023-02-22T00:37:52;12.40;99.90
45008;DHT22;30743;52.008;5.644;2023-02-22T00:40:20;12.30;99.90
45008;DHT22;30743;52.008;5.644;2023-02-22T00:42:46;12.10;99.90
45008;DHT22;30743;52.008;5.644;2023-02-22T00:45:14;11.90;99.90
45008;DHT22;30743;52.008;5.644;2023-02-22T00:47:40;11.70;99.90
45008;DHT22;30743;52.008;5.644;2023-02-22T00:50:05;11.70;99.90
45008;DHT22;30743;52.008;5.644;2023-02-22T00:52:31;11.80;99.90
45008;DHT22;30743;52.008;5.644;2023-02-22T00:54:57;11.80;99.90
45008;DHT22;30743;52.008;5.644;2023-02-22T00:57:23;11.90;99.90
45008;DHT22;30743;52.008;5.644;2023-02-22T00:59:49;11.80;99.90
45008;DHT22;30743;52.008;5.644;2023-02-22T01:02:15;11.80;99.90
45008;DHT22;30743;52.008;5.644;2023-02-22T01:04:41;11.90;99.90
45008;DHT22;30743;52.008;5.644;2023-02-22T01:07:07;11.80;99.90
45008;DHT22;30743;52.008;5.644;2023-02-22T01:09:33;11.60;99.90
45008;DHT22;30743;52.008;5.644;2023-02-22T01:12:00;11.40;99.90
45008;DHT22;30743;52.008;5.644;2023-02-22T01:14:27;11.30;99.90
45008;DHT22;30743;52.008;5.644;2023-02-22T01:16:54;11.30;99.90
45008;DHT22;30743;52.008;5.644;2023-02-22T01:19:23;11.00;99.90
45008;DHT22;30743;52.008;5.644;2023-02-22T01:21:49;11.00;99.90
45008;DHT22;30743;52.008;5.644;2023-02-22T01:24:16;11.20;99.90
45008;DHT22;30743;52.008;5.644;2023-02-22T01:26:43;11.40;99.90
45008;DHT22;30743;52.008;5.644;2023-02-22T01:29:14;11.40;99.90
45008;DHT22;30743;52.008;5.644;2023-02-22T01:31:41;11.50;99.90
45008;DHT22;30743;52.008;5.644;2023-02-22T01:34:09;11.50;99.90
45008;DHT22;30743;52.008;5.644;2023-02-22T01:36:34;11.50;99.90
45008;DHT22;30743;52.008;5.644;2023-02-22T01:39:00;11.70;99.90
45008;DHT22;30743;52.008;5.644;2023-02-22T01:41:25;11.20;99.90
45008;DHT22;30743;52.008;5.644;2023-02-22T01:43:51;11.10;99.90
45008;DHT22;30743;52.008;5.644;2023-02-22T01:46:23;10.90;99.90
45008;DHT22;30743;52.008;5.644;2023-02-22T01:49:03;10.80;99.90
45008;DHT22;30743;52.008;5.644;2023-02-22T01:51:48;10.50;99.90
45008;DHT22;30743;52.008;5.644;2023-02-22T01:54:19;10.30;99.90
45008;DHT22;30743;52.008;5.644;2023-02-22T01:59:33;10.30;99.90
45008;DHT22;30743;52.008;5.644;2023-02-22T02:02:01;10.30;99.90
45008;DHT22;30743;52.008;5.644;2023-02-22T02:04:30;10.30;99.90
45008;DHT22;30743;52.008;5.644;2023-02-22T02:07:02;10.30;99.90
45008;DHT22;30743;52.008;5.644;2023-02-22T02:09:39;10.30;99.90
45008;DHT22;30743;52.008;5.644;2023-02-22T02:12:09;10.40;99.90
45008;DHT22;30743;52.008;5.644;2023-02-22T02:14:35;10.30;99.90
45008;DHT22;30743;52.008;5.644;2023-02-22T02:17:08;10.40;99.90
45008;DHT22;30743;52.008;5.644;2023-02-22T02:19:44;10.50;99.90
45008;DHT22;30743;52.008;5.644;2023-02-22T02:22:20;10.10;99.90
45008;DHT22;30743;52.008;5.644;2023-02-22T02:27:58;10.30;99.90
45008;DHT22;30743;52.008;5.644;2023-02-22T02:33:32;10.40;99.90
45008;DHT22;30743;52.008;5.644;2023-02-22T02:41:34;10.60;99.90
45008;DHT22;30743;52.008;5.644;2023-02-22T02:44:04;10.60;99.90
45008;DHT22;30743;52.008;5.644;2023-02-22T02:46:50;10.80;99.90
45008;DHT22;30743;52.008;5.644;2023-02-22T02:49:26;11.00;99.90
45008;DHT22;30743;52.008;5.644;2023-02-22T02:51:55;10.90;99.90
45008;DHT22;30743;52.008;5.644;2023-02-22T02:54:23;10.70;99.90
45008;DHT22;30743;52.008;5.644;2023-02-22T02:56:49;10.80;99.90
45008;DHT22;30743;52.008;5.644;2023-02-22T02:59:31;10.50;99.90
45008;DHT22;30743;52.008;5.644;2023-02-22T03:02:15;10.50;99.90
45008;DHT22;30743;52.008;5.644;2023-02-22T03:18:11;10.80;99.90
45008;DHT22;30743;52.008;5.644;2023-02-22T03:23:27;10.90;99.90
45008;DHT22;30743;52.008;5.644;2023-02-22T03:26:13;11.10;99.90
45008;DHT22;30743;52.008;5.644;2023-02-22T03:28:46;10.80;99.90
45008;DHT22;30743;52.008;5.644;2023-02-22T03:31:16;10.60;99.90
45008;DHT22;30743;52.008;5.644;2023-02-22T03:33:51;10.30;99.90
45008;DHT22;30743;52.008;5.644;2023-02-22T03:36:31;10.50;99.90
45008;DHT22;30743;52.008;5.644;2023-02-22T03:38:59;10.30;99.90
45008;DHT22;30743;52.008;5.644;2023-02-22T03:41:29;10.50;99.90
45008;DHT22;30743;52.008;5.644;2023-02-22T03:44:01;10.50;99.90
45008;DHT22;30743;52.008;5.644;2023-02-22T03:46:29;10.70;99.90
45008;DHT22;30743;52.008;5.644;2023-02-22T03:49:25;10.70;99.90
45008;DHT22;30743;52.008;5.644;2023-02-22T03:51:54;10.80;99.90
45008;DHT22;30743;52.008;5.644;2023-02-22T03:54:20;10.80;99.90
45008;DHT22;30743;52.008;5.644;2023-02-22T03:56:52;10.80;99.90
45008;DHT22;30743;52.008;5.644;2023-02-22T03:59:19;10.80;99.90
45008;DHT22;30743;52.008;5.644;2023-02-22T04:01:51;10.80;99.90
45008;DHT22;30743;52.008;5.644;2023-02-22T04:04:17;10.90;99.90
45008;DHT22;30743;52.008;5.644;2023-02-22T04:06:45;10.80;99.90
45008;DHT22;30743;52.008;5.644;2023-02-22T04:09:12;10.80;99.90
45008;DHT22;30743;52.008;5.644;2023-02-22T04:11:38;10.70;99.90
45008;DHT22;30743;52.008;5.644;2023-02-22T04:14:03;10.50;99.90
45008;DHT22;30743;52.008;5.644;2023-02-22T04:16:29;10.40;99.90
45008;DHT22;30743;52.008;5.644;2023-02-22T04:18:55;10.20;99.90
45008;DHT22;30743;52.008;5.644;2023-02-22T04:21:20;10.10;99.90
45008;DHT22;30743;52.008;5.644;2023-02-22T04:23:46;10.10;99.90
45008;DHT22;30743;52.008;5.644;2023-02-22T04:26:11;10.10;99.90
45008;DHT22;30743;52.008;5.644;2023-02-22T04:28:37;10.20;99.90
45008;DHT22;30743;52.008;5.644;2023-02-22T04:31:02;10.30;99.90
45008;DHT22;30743;52.008;5.644;2023-02-22T04:33:28;10.40;99.90
45008;DHT22;30743;52.008;5.644;2023-02-22T04:35:53;10.50;99.90
45008;DHT22;30743;52.008;5.644;2023-02-22T04:38:19;10.40;99.90
45008;DHT22;30743;52.008;5.644;2023-02-22T04:40:44;10.40;99.90
45008;DHT22;30743;52.008;5.644;2023-02-22T04:43:10;10.50;99.90
45008;DHT22;30743;52.008;5.644;2023-02-22T04:45:35;10.60;99.90
45008;DHT22;30743;52.008;5.644;2023-02-22T04:48:01;10.40;99.90
45008;DHT22;30743;52.008;5.644;2023-02-22T04:50:26;10.20;99.90
45008;DHT22;30743;52.008;5.644;2023-02-22T04:52:52;10.10;99.90
45008;DHT22;30743;52.008;5.644;2023-02-22T04:55:18;10.20;99.90
45008;DHT22;30743;52.008;5.644;2023-02-22T04:57:43;10.30;99.90
45008;DHT22;30743;52.008;5.644;2023-02-22T05:00:09;10.00;99.90
45008;DHT22;30743;52.008;5.644;2023-02-22T05:02:38;9.70;99.90
45008;DHT22;30743;52.008;5.644;2023-02-22T05:05:04;9.60;99.90
45008;DHT22;30743;52.008;5.644;2023-02-22T05:07:30;9.50;99.90
45008;DHT22;30743;52.008;5.644;2023-02-22T05:09:55;9.70;99.90
45008;DHT22;30743;52.008;5.644;2023-02-22T05:12:21;9.70;99.90
45008;DHT22;30743;52.008;5.644;2023-02-22T05:14:46;9.90;99.90
45008;DHT22;30743;52.008;5.644;2023-02-22T05:17:12;9.90;99.90
45008;DHT22;30743;52.008;5.644;2023-02-22T05:19:38;10.10;99.90
45008;DHT22;30743;52.008;5.644;2023-02-22T05:22:03;10.30;99.90
45008;DHT22;30743;52.008;5.644;2023-02-22T05:24:30;10.30;99.90
45008;DHT22;30743;52.008;5.644;2023-02-22T05:26:56;10.50;99.90
45008;DHT22;30743;52.008;5.644;2023-02-22T05:29:22;10.60;99.90
45008;DHT22;30743;52.008;5.644;2023-02-22T05:31:47;10.70;99.90
45008;DHT22;30743;52.008;5.644;2023-02-22T05:34:14;10.50;99.90
45008;DHT22;30743;52.008;5.644;2023-02-22T05:36:39;10.30;99.90
45008;DHT22;30743;52.008;5.644;2023-02-22T05:39:05;10.00;99.90
45008;DHT22;30743;52.008;5.644;2023-02-22T05:41:31;9.90;99.90
45008;DHT22;30743;52.008;5.644;2023-02-22T05:43:56;9.70;99.90
45008;DHT22;30743;52.008;5.644;2023-02-22T05:46:22;9.50;99.90
45008;DHT22;30743;52.008;5.644;2023-02-22T05:48:47;9.20;99.90
45008;DHT22;30743;52.008;5.644;2023-02-22T05:51:13;9.20;99.90
45008;DHT22;30743;52.008;5.644;2023-02-22T05:53:38;9.20;99.90
45008;DHT22;30743;52.008;5.644;2023-02-22T05:56:04;9.20;99.90
45008;DHT22;30743;52.008;5.644;2023-02-22T05:58:30;9.10;99.90
45008;DHT22;30743;52.008;5.644;2023-02-22T06:00:55;9.30;99.90
45008;DHT22;30743;52.008;5.644;2023-02-22T06:03:21;9.40;99.90
45008;DHT22;30743;52.008;5.644;2023-02-22T06:05:46;9.50;99.90
45008;DHT22;30743;52.008;5.644;2023-02-22T06:08:12;9.60;99.90
45008;DHT22;30743;52.008;5.644;2023-02-22T06:10:37;9.60;99.90
45008;DHT22;30743;52.008;5.644;2023-02-22T06:13:04;9.70;99.90
45008;DHT22;30743;52.008;5.644;2023-02-22T06:15:31;9.50;99.90
45008;DHT22;30743;52.008;5.644;2023-02-22T06:17:57;9.40;99.90
45008;DHT22;30743;52.008;5.644;2023-02-22T06:20:26;9.30;99.90
45008;DHT22;30743;52.008;5.644;2023-02-22T06:22:53;9.40;99.90
45008;DHT22;30743;52.008;5.644;2023-02-22T06:25:22;9.50;99.90
45008;DHT22;30743;52.008;5.644;2023-02-22T06:27:48;9.20;99.90
45008;DHT22;30743;52.008;5.644;2023-02-22T06:30:15;8.90;99.90
45008;DHT22;30743;52.008;5.644;2023-02-22T06:32:41;8.70;99.90
45008;DHT22;30743;52.008;5.644;2023-02-22T06:35:07;8.80;99.90
45008;DHT22;30743;52.008;5.644;2023-02-22T06:37:34;8.90;99.90
45008;DHT22;30743;52.008;5.644;2023-02-22T06:40:00;8.80;99.90
45008;DHT22;30743;52.008;5.644;2023-02-22T06:42:25;8.90;99.90
45008;DHT22;30743;52.008;5.644;2023-02-22T06:44:51;8.90;99.90
45008;DHT22;30743;52.008;5.644;2023-02-22T06:47:16;9.10;99.90
45008;DHT22;30743;52.008;5.644;2023-02-22T06:49:42;9.20;99.90
45008;DHT22;30743;52.008;5.644;2023-02-22T06:52:08;9.40;99.90
45008;DHT22;30743;52.008;5.644;2023-02-22T06:54:34;9.40;99.90
45008;DHT22;30743;52.008;5.644;2023-02-22T06:57:00;9.50;99.90
45008;DHT22;30743;52.008;5.644;2023-02-22T06:59:26;9.60;99.90
45008;DHT22;30743;52.008;5.644;2023-02-22T07:01:52;9.70;99.90
45008;DHT22;30743;52.008;5.644;2023-02-22T07:04:18;9.90;99.90
45008;DHT22;30743;52.008;5.644;2023-02-22T07:06:48;10.10;99.90
45008;DHT22;30743;52.008;5.644;2023-02-22T07:09:14;10.10;99.90
45008;DHT22;30743;52.008;5.644;2023-02-22T07:11:41;9.90;99.90
45008;DHT22;30743;52.008;5.644;2023-02-22T07:14:07;9.80;99.90
45008;DHT22;30743;52.008;5.644;2023-02-22T07:16:32;9.90;99.90
45008;DHT22;30743;52.008;5.644;2023-02-22T07:18:58;10.10;99.90
45008;DHT22;30743;52.008;5.644;2023-02-22T07:21:25;10.30;99.90
45008;DHT22;30743;52.008;5.644;2023-02-22T07:23:54;10.30;99.90
45008;DHT22;30743;52.008;5.644;2023-02-22T07:26:20;10.20;99.90
45008;DHT22;30743;52.008;5.644;2023-02-22T07:28:46;10.20;99.90
45008;DHT22;30743;52.008;5.644;2023-02-22T07:31:12;10.30;99.90
45008;DHT22;30743;52.008;5.644;2023-02-22T07:33:37;10.60;99.90
45008;DHT22;30743;52.008;5.644;2023-02-22T07:36:03;10.70;99.90
45008;DHT22;30743;52.008;5.644;2023-02-22T07:38:30;10.90;99.90
45008;DHT22;30743;52.008;5.644;2023-02-22T07:40:56;11.00;99.90
45008;DHT22;30743;52.008;5.644;2023-02-22T07:43:24;11.10;99.90
45008;DHT22;30743;52.008;5.644;2023-02-22T07:45:51;11.10;99.90
45008;DHT22;30743;52.008;5.644;2023-02-22T07:48:18;11.10;99.90
45008;DHT22;30743;52.008;5.644;2023-02-22T07:50:44;11.10;99.90
45008;DHT22;30743;52.008;5.644;2023-02-22T07:53:16;11.10;99.90
45008;DHT22;30743;52.008;5.644;2023-02-22T07:55:42;11.10;99.90
45008;DHT22;30743;52.008;5.644;2023-02-22T07:58:08;10.70;99.90
45008;DHT22;30743;52.008;5.644;2023-02-22T08:00:38;10.50;99.90
45008;DHT22;30743;52.008;5.644;2023-02-22T08:03:07;10.40;99.90
45008;DHT22;30743;52.008;5.644;2023-02-22T08:05:35;10.60;99.90
45008;DHT22;30743;52.008;5.644;2023-02-22T08:08:03;10.70;99.90
45008;DHT22;30743;52.008;5.644;2023-02-22T08:10:30;10.60;99.90
45008;DHT22;30743;52.008;5.644;2023-02-22T08:12:56;10.70;99.90
45008;DHT22;30743;52.008;5.644;2023-02-22T08:15:30;10.70;99.90
45008;DHT22;30743;52.008;5.644;2023-02-22T08:17:57;10.60;99.90
45008;DHT22;30743;52.008;5.644;2023-02-22T08:20:23;10.50;99.90
45008;DHT22;30743;52.008;5.644;2023-02-22T08:22:49;10.60;99.90
45008;DHT22;30743;52.008;5.644;2023-02-22T08:25:16;10.60;99.90
45008;DHT22;30743;52.008;5.644;2023-02-22T08:27:43;10.70;99.90
45008;DHT22;30743;52.008;5.644;2023-02-22T08:30:21;10.80;99.90
45008;DHT22;30743;52.008;5.644;2023-02-22T08:32:48;10.90;99.90
45008;DHT22;30743;52.008;5.644;2023-02-22T08:35:15;10.90;99.90
45008;DHT22;30743;52.008;5.644;2023-02-22T08:37:46;10.80;99.90
45008;DHT22;30743;52.008;5.644;2023-02-22T08:40:13;10.60;99.90
45008;DHT22;30743;52.008;5.644;2023-02-22T08:42:41;10.40;99.90
45008;DHT22;30743;52.008;5.644;2023-02-22T08:45:07;10.10;99.90
45008;DHT22;30743;52.008;5.644;2023-02-22T08:47:33;10.10;99.90
45008;DHT22;30743;52.008;5.644;2023-02-22T08:49:58;10.20;99.90
45008;DHT22;30743;52.008;5.644;2023-02-22T08:52:24;10.00;99.90
45008;DHT22;30743;52.008;5.644;2023-02-22T08:54:49;10.20;99.90
45008;DHT22;30743;52.008;5.644;2023-02-22T08:57:15;10.10;99.90
45008;DHT22;30743;52.008;5.644;2023-02-22T08:59:40;10.20;99.90
45008;DHT22;30743;52.008;5.644;2023-02-22T09:02:14;10.20;99.90
45008;DHT22;30743;52.008;5.644;2023-02-22T09:04:40;10.20;99.90
45008;DHT22;30743;52.008;5.644;2023-02-22T09:07:06;10.30;99.90
45008;DHT22;30743;52.008;5.644;2023-02-22T09:09:31;10.20;99.90
45008;DHT22;30743;52.008;5.644;2023-02-22T09:11:57;10.40;99.90
45008;DHT22;30743;52.008;5.644;2023-02-22T09:14:22;10.60;99.90
45008;DHT22;30743;52.008;5.644;2023-02-22T09:16:48;10.80;99.90
45008;DHT22;30743;52.008;5.644;2023-02-22T09:19:13;10.80;99.90
45008;DHT22;30743;52.008;5.644;2023-02-22T09:21:39;11.10;99.90
45008;DHT22;30743;52.008;5.644;2023-02-22T09:24:05;11.20;99.90
45008;DHT22;30743;52.008;5.644;2023-02-22T09:26:45;11.40;99.90
45008;DHT22;30743;52.008;5.644;2023-02-22T09:29:11;11.50;99.90
45008;DHT22;30743;52.008;5.644;2023-02-22T09:31:38;11.50;99.90
45008;DHT22;30743;52.008;5.644;2023-02-22T09:34:06;11.60;99.90
45008;DHT22;30743;52.008;5.644;2023-02-22T09:36:42;11.70;99.90
45008;DHT22;30743;52.008;5.644;2023-02-22T09:39:08;11.90;99.90
45008;DHT22;30743;52.008;5.644;2023-02-22T09:44:47;12.10;99.90
45008;DHT22;30743;52.008;5.644;2023-02-22T09:47:22;12.20;99.90
45008;DHT22;30743;52.008;5.644;2023-02-22T09:50:13;12.50;99.90
45008;DHT22;30743;52.008;5.644;2023-02-22T09:52:55;12.60;99.90
45008;DHT22;30743;52.008;5.644;2023-02-22T09:55:42;13.00;99.90
45008;DHT22;30743;52.008;5.644;2023-02-22T09:58:21;13.40;99.90
45008;DHT22;30743;52.008;5.644;2023-02-22T10:00:54;13.50;99.90
45008;DHT22;30743;52.008;5.644;2023-02-22T10:03:35;13.70;99.90
45008;DHT22;30743;52.008;5.644;2023-02-22T10:06:07;13.60;99.90
45008;DHT22;30743;52.008;5.644;2023-02-22T10:08:35;13.60;99.90
45008;DHT22;30743;52.008;5.644;2023-02-22T10:32:42;16.20;99.90
45008;DHT22;30743;52.008;5.644;2023-02-22T10:35:19;16.20;99.90
45008;DHT22;30743;52.008;5.644;2023-02-22T10:37:47;16.40;99.90
45008;DHT22;30743;52.008;5.644;2023-02-22T10:40:21;16.60;99.90
45008;DHT22;30743;52.008;5.644;2023-02-22T10:42:57;16.60;99.90
45008;DHT22;30743;52.008;5.644;2023-02-22T10:45:24;16.60;99.90
45008;DHT22;30743;52.008;5.644;2023-02-22T10:47:54;16.70;99.90
45008;DHT22;30743;52.008;5.644;2023-02-22T10:50:20;16.80;99.90
45008;DHT22;30743;52.008;5.644;2023-02-22T10:52:46;16.80;99.90
45008;DHT22;30743;52.008;5.644;2023-02-22T10:55:14;16.70;99.90
45008;DHT22;30743;52.008;5.644;2023-02-22T10:57:42;16.40;99.90
45008;DHT22;30743;52.008;5.644;2023-02-22T11:03:01;16.40;99.90
45008;DHT22;30743;52.008;5.644;2023-02-22T11:05:38;16.30;99.90
45008;DHT22;30743;52.008;5.644;2023-02-22T11:08:28;16.20;99.90
45008;DHT22;30743;52.008;5.644;2023-02-22T11:10:59;16.40;99.90
45008;DHT22;30743;52.008;5.644;2023-02-22T11:13:31;16.50;99.90
45008;DHT22;30743;52.008;5.644;2023-02-22T11:16:00;16.00;99.90
45008;DHT22;30743;52.008;5.644;2023-02-22T11:18:34;15.50;99.90
45008;DHT22;30743;52.008;5.644;2023-02-22T11:21:02;15.70;99.90
45008;DHT22;30743;52.008;5.644;2023-02-22T11:23:30;15.70;99.90
45008;DHT22;30743;52.008;5.644;2023-02-22T11:26:03;16.00;99.90
45008;DHT22;30743;52.008;5.644;2023-02-22T11:28:31;15.70;99.90
45008;DHT22;30743;52.008;5.644;2023-02-22T11:31:15;15.60;99.90
45008;DHT22;30743;52.008;5.644;2023-02-22T11:36:51;15.10;99.90
45008;DHT22;30743;52.008;5.644;2023-02-22T11:39:31;15.00;99.90
45008;DHT22;30743;52.008;5.644;2023-02-22T11:42:19;14.90;99.90
45008;DHT22;30743;52.008;5.644;2023-02-22T11:44:44;14.80;99.90
45008;DHT22;30743;52.008;5.644;2023-02-22T11:47:11;14.90;99.90
45008;DHT22;30743;52.008;5.644;2023-02-22T11:49:38;15.10;99.90
45008;DHT22;30743;52.008;5.644;2023-02-22T11:52:32;15.10;99.90
45008;DHT22;30743;52.008;5.644;2023-02-22T12:12:01;14.50;99.90
45008;DHT22;30743;52.008;5.644;2023-02-22T12:19:59;14.90;99.90
45008;DHT22;30743;52.008;5.644;2023-02-22T12:22:32;15.00;99.90
45008;DHT22;30743;52.008;5.644;2023-02-22T12:25:16;15.20;99.90
45008;DHT22;30743;52.008;5.644;2023-02-22T12:27:50;15.50;99.90
45008;DHT22;30743;52.008;5.644;2023-02-22T12:30:25;15.50;99.90
45008;DHT22;30743;52.008;5.644;2023-02-22T12:32:57;15.30;99.90
45008;DHT22;30743;52.008;5.644;2023-02-22T12:35:38;15.20;99.90
45008;DHT22;30743;52.008;5.644;2023-02-22T12:43:31;15.10;99.90
45008;DHT22;30743;52.008;5.644;2023-02-22T12:46:00;15.30;99.90
45008;DHT22;30743;52.008;5.644;2023-02-22T12:48:41;15.20;99.90
45008;DHT22;30743;52.008;5.644;2023-02-22T12:53:40;15.10;99.90
45008;DHT22;30743;52.008;5.644;2023-02-22T12:56:23;15.20;99.90
45008;DHT22;30743;52.008;5.644;2023-02-22T12:58:58;15.00;99.90
45008;DHT22;30743;52.008;5.644;2023-02-22T13:01:36;15.00;99.90
45008;DHT22;30743;52.008;5.644;2023-02-22T13:04:03;15.10;99.90
45008;DHT22;30743;52.008;5.644;2023-02-22T13:13:11;15.40;99.90
45008;DHT22;30743;52.008;5.644;2023-02-22T13:18:34;15.70;99.90
45008;DHT22;30743;52.008;5.644;2023-02-22T13:21:24;15.70;99.90
45008;DHT22;30743;52.008;5.644;2023-02-22T13:23:54;15.70;99.90
45008;DHT22;30743;52.008;5.644;2023-02-22T13:26:38;15.60;99.90
45008;DHT22;30743;52.008;5.644;2023-02-22T13:29:15;15.40;99.90
45008;DHT22;30743;52.008;5.644;2023-02-22T13:43:13;15.90;99.90
45008;DHT22;30743;52.008;5.644;2023-02-22T13:48:22;15.80;99.90
45008;DHT22;30743;52.008;5.644;2023-02-22T13:53:27;15.30;99.90
45008;DHT22;30743;52.008;5.644;2023-02-22T13:55:56;15.20;99.90
45008;DHT22;30743;52.008;5.644;2023-02-22T13:58:24;15.10;99.90
45008;DHT22;30743;52.008;5.644;2023-02-22T14:00:57;15.00;99.90
45008;DHT22;30743;52.008;5.644;2023-02-22T14:03:39;15.30;99.90
45008;DHT22;30743;52.008;5.644;2023-02-22T14:06:09;15.30;99.90
45008;DHT22;30743;52.008;5.644;2023-02-22T14:08:54;15.40;99.90
45008;DHT22;30743;52.008;5.644;2023-02-22T14:14:11;15.40;99.90
45008;DHT22;30743;52.008;5.644;2023-02-22T14:16:38;15.40;99.90
45008;DHT22;30743;52.008;5.644;2023-02-22T14:19:15;15.40;99.90
45008;DHT22;30743;52.008;5.644;2023-02-22T14:22:03;15.50;99.90
45008;DHT22;30743;52.008;5.644;2023-02-22T14:24:45;15.40;99.90
45008;DHT22;30743;52.008;5.644;2023-02-22T14:27:13;15.50;99.90
45008;DHT22;30743;52.008;5.644;2023-02-22T14:29:53;15.70;99.90
45008;DHT22;30743;52.008;5.644;2023-02-22T14:32:32;15.40;99.90
45008;DHT22;30743;52.008;5.644;2023-02-22T14:35:11;15.40;99.90
45008;DHT22;30743;52.008;5.644;2023-02-22T14:37:41;15.60;99.90
45008;DHT22;30743;52.008;5.644;2023-02-22T14:40:18;15.70;99.90
45008;DHT22;30743;52.008;5.644;2023-02-22T14:42:55;15.50;99.90
45008;DHT22;30743;52.008;5.644;2023-02-22T14:45:28;15.60;99.90
45008;DHT22;30743;52.008;5.644;2023-02-22T14:48:31;15.60;99.90
45008;DHT22;30743;52.008;5.644;2023-02-22T14:51:25;15.70;99.90
45008;DHT22;30743;52.008;5.644;2023-02-22T14:54:22;15.70;99.90
45008;DHT22;30743;52.008;5.644;2023-02-22T14:57:04;15.70;99.90
45008;DHT22;30743;52.008;5.644;2023-02-22T15:00:14;15.70;99.90
45008;DHT22;30743;52.008;5.644;2023-02-22T15:02:51;15.80;99.90
45008;DHT22;30743;52.008;5.644;2023-02-22T15:05:18;15.90;99.90
45008;DHT22;30743;52.008;5.644;2023-02-22T15:07:59;15.80;99.90
45008;DHT22;30743;52.008;5.644;2023-02-22T15:13:02;15.80;99.90
45008;DHT22;30743;52.008;5.644;2023-02-22T15:15:41;15.70;99.90
45008;DHT22;30743;52.008;5.644;2023-02-22T15:18:29;15.80;99.90
45008;DHT22;30743;52.008;5.644;2023-02-22T15:21:22;15.70;99.90
45008;DHT22;30743;52.008;5.644;2023-02-22T15:23:49;15.60;99.90
45008;DHT22;30743;52.008;5.644;2023-02-22T15:28:51;15.70;99.90
45008;DHT22;30743;52.008;5.644;2023-02-22T15:31:33;15.60;99.90
45008;DHT22;30743;52.008;5.644;2023-02-22T15:34:17;15.60;99.90
45008;DHT22;30743;52.008;5.644;2023-02-22T15:36:47;15.60;99.90
45008;DHT22;30743;52.008;5.644;2023-02-22T15:42:11;15.70;99.90
45008;DHT22;30743;52.008;5.644;2023-02-22T15:44:44;15.60;99.90
45008;DHT22;30743;52.008;5.644;2023-02-22T15:47:31;15.50;99.90
45008;DHT22;30743;52.008;5.644;2023-02-22T15:53:07;15.20;99.90
45008;DHT22;30743;52.008;5.644;2023-02-22T15:55:41;15.10;99.90
45008;DHT22;30743;52.008;5.644;2023-02-22T15:58:22;14.90;99.90
45008;DHT22;30743;52.008;5.644;2023-02-22T16:01:02;14.70;99.90
45008;DHT22;30743;52.008;5.644;2023-02-22T16:03:38;14.50;99.90
45008;DHT22;30743;52.008;5.644;2023-02-22T16:06:12;14.50;99.90
45008;DHT22;30743;52.008;5.644;2023-02-22T16:08:43;14.50;99.90
45008;DHT22;30743;52.008;5.644;2023-02-22T16:11:19;14.60;99.90
45008;DHT22;30743;52.008;5.644;2023-02-22T16:13:52;14.60;99.90
45008;DHT22;30743;52.008;5.644;2023-02-22T16:18:50;14.50;99.90
45008;DHT22;30743;52.008;5.644;2023-02-22T16:21:18;14.50;99.90
45008;DHT22;30743;52.008;5.644;2023-02-22T16:23:47;14.40;99.90
45008;DHT22;30743;52.008;5.644;2023-02-22T16:26:32;14.30;99.90
45008;DHT22;30743;52.008;5.644;2023-02-22T16:29:04;14.30;99.90
45008;DHT22;30743;52.008;5.644;2023-02-22T16:31:37;14.10;99.90
45008;DHT22;30743;52.008;5.644;2023-02-22T16:34:05;14.10;99.90
45008;DHT22;30743;52.008;5.644;2023-02-22T16:36:41;14.10;99.90
45008;DHT22;30743;52.008;5.644;2023-02-22T16:39:32;14.20;99.90
45008;DHT22;30743;52.008;5.644;2023-02-22T16:42:02;14.30;99.90
45008;DHT22;30743;52.008;5.644;2023-02-22T16:44:28;14.40;99.90
45008;DHT22;30743;52.008;5.644;2023-02-22T16:46:55;14.60;99.90
45008;DHT22;30743;52.008;5.644;2023-02-22T16:49:22;14.60;99.90
45008;DHT22;30743;52.008;5.644;2023-02-22T16:51:55;14.50;99.90
45008;DHT22;30743;52.008;5.644;2023-02-22T16:54:27;14.30;99.90
45008;DHT22;30743;52.008;5.644;2023-02-22T16:56:54;14.20;99.90
45008;DHT22;30743;52.008;5.644;2023-02-22T16:59:21;14.20;99.90
45008;DHT22;30743;52.008;5.644;2023-02-22T17:01:47;14.30;99.90
45008;DHT22;30743;52.008;5.644;2023-02-22T17:04:19;14.30;99.90
45008;DHT22;30743;52.008;5.644;2023-02-22T17:06:45;14.50;99.90
45008;DHT22;30743;52.008;5.644;2023-02-22T17:09:11;14.50;99.90
45008;DHT22;30743;52.008;5.644;2023-02-22T17:11:37;14.60;99.90
45008;DHT22;30743;52.008;5.644;2023-02-22T17:14:03;14.60;99.90
45008;DHT22;30743;52.008;5.644;2023-02-22T17:16:29;14.60;99.90
45008;DHT22;30743;52.008;5.644;2023-02-22T17:18:54;14.70;99.90
45008;DHT22;30743;52.008;5.644;2023-02-22T17:21:21;14.70;99.90
45008;DHT22;30743;52.008;5.644;2023-02-22T17:23:47;14.70;99.90
45008;DHT22;30743;52.008;5.644;2023-02-22T17:26:14;14.70;99.90
45008;DHT22;30743;52.008;5.644;2023-02-22T17:28:41;14.70;99.90
45008;DHT22;30743;52.008;5.644;2023-02-22T17:31:19;14.70;99.90
45008;DHT22;30743;52.008;5.644;2023-02-22T17:33:45;14.70;99.90
45008;DHT22;30743;52.008;5.644;2023-02-22T17:36:11;14.70;99.90
45008;DHT22;30743;52.008;5.644;2023-02-22T17:38:37;14.60;99.90
45008;DHT22;30743;52.008;5.644;2023-02-22T17:41:06;14.70;99.90
45008;DHT22;30743;52.008;5.644;2023-02-22T17:43:32;14.90;99.90
45008;DHT22;30743;52.008;5.644;2023-02-22T17:45:58;14.90;99.90
45008;DHT22;30743;52.008;5.644;2023-02-22T17:48:25;14.80;99.90
45008;DHT22;30743;52.008;5.644;2023-02-22T17:50:51;14.50;99.90
45008;DHT22;30743;52.008;5.644;2023-02-22T17:53:17;14.30;99.90
45008;DHT22;30743;52.008;5.644;2023-02-22T17:55:46;13.90;99.90
45008;DHT22;30743;52.008;5.644;2023-02-22T17:58:12;13.80;99.90
45008;DHT22;30743;52.008;5.644;2023-02-22T18:00:46;13.50;99.90
45008;DHT22;30743;52.008;5.644;2023-02-22T18:03:15;13.60;99.90
45008;DHT22;30743;52.008;5.644;2023-02-22T18:05:44;13.40;99.90